El Trebol, Argentina

1:28 AM ART on November 27, 2014 (GMT -0300)
Armstrong, Santa Fe, Argentina | Change Station
CLOSE
Current Station
Personal Weather Station
Location: Armstrong, SANTA FE
Elevation: 397 ft
Nearby Weather Stations

Elev 397 ft 32.79 °S, 61.61 °W | Updated 3 minutes ago

Clear
Clear
64.2 °F
Feels Like 64.2 °F
N
2.2
Wind Variable Wind from NE
Gusts 3.1 mph

Today
High -- | Low -- °F
--% Chance of Precip.
Yesterday
High -- | Low -- °F
Precip. -- in
5:52 AM 7:56 PM
Waxing Crescent, 25% visible
Pressure 29.98 in
Visibility -9999.0 miles
Clouds
Dew Point 50 °F
Humidity 59%
Rainfall 0.00 in
Snow Depth Not available.
UV Not available.
Pollen Not available.
Air Quality Not available.
Flu Activity Not available.
METAR SAAR 270400Z 16003KT CAVOK 16/11 Q1015

More Conditions Fewer Conditions

Pressure 29.98 in
Visibility -9999.0 miles
Clouds
Dew Point 50 °F
Humidity 59%
Rainfall 0.00 in
Snow Depth Not available.
UV Not available.
Pollen Not available.
Air Quality Not available.
Flu Activity Not available.
METAR SAAR 270400Z 16003KT CAVOK 16/11 Q1015

More Conditions Fewer Conditions

10-Day Weather Forecast

Almanac

Astronomy

Nov. 27, 2014 Rise Set
Actual Time
Civil Twilight
Nautical Twilight
Astronomical Twilight
Moon
Length of Visible Light
Length of Day
Tomorrow will be .
, % of the Moon is Illuminated

Today's Extremes

Country Highs Country Lows

Community

WunderPhotos

Upload Photos

1,773,958 photos uploaded!

WunderBlogs® & News

Nearby

Air Quality

  Air Quality AQ Index Pollutant
Not available.

Snow Depth

Station Depth Elevation

Earthquake Activity

City Distance Mag. Time & Date
Minimum magnitude displayed is 2.5.

Coastal Water Temperatures

Place Temperature

Nearby Weather Stations